sensor_id;sensor_type;location;lat;lon;timestamp;P1;durP1;ratioP1;P2;durP2;ratioP2
13250;SDS011;6692;50.710;7.180;2023-03-14T00:00:46;176.77;;;170.47;;
13250;SDS011;6692;50.710;7.180;2023-03-14T00:02:50;175.73;;;169.50;;
13250;SDS011;6692;50.710;7.180;2023-03-14T00:04:48;161.87;;;156.13;;
13250;SDS011;6692;50.710;7.180;2023-03-14T00:06:48;185.23;;;178.60;;
13250;SDS011;6692;50.710;7.180;2023-03-14T00:08:49;164.07;;;158.27;;
13250;SDS011;6692;50.710;7.180;2023-03-14T00:10:50;178.80;;;172.40;;
13250;SDS011;6692;50.710;7.180;2023-03-14T00:12:51;158.27;;;152.47;;
13250;SDS011;6692;50.710;7.180;2023-03-14T00:14:52;183.70;;;177.23;;
13250;SDS011;6692;50.710;7.180;2023-03-14T00:16:53;181.73;;;175.50;;
13250;SDS011;6692;50.710;7.180;2023-03-14T00:18:54;155.10;;;149.40;;
13250;SDS011;6692;50.710;7.180;2023-03-14T00:20:56;134.37;;;129.40;;
13250;SDS011;6692;50.710;7.180;2023-03-14T00:22:56;155.70;;;150.17;;
13250;SDS011;6692;50.710;7.180;2023-03-14T00:24:57;163.77;;;157.87;;
13250;SDS011;6692;50.710;7.180;2023-03-14T00:26:57;156.93;;;151.33;;
13250;SDS011;6692;50.710;7.180;2023-03-14T00:28:58;163.63;;;157.53;;
13250;SDS011;6692;50.710;7.180;2023-03-14T00:30:58;170.37;;;164.23;;
13250;SDS011;6692;50.710;7.180;2023-03-14T00:33:00;156.60;;;150.90;;
13250;SDS011;6692;50.710;7.180;2023-03-14T00:35:01;161.70;;;155.70;;
13250;SDS011;6692;50.710;7.180;2023-03-14T00:37:01;157.30;;;151.57;;
13250;SDS011;6692;50.710;7.180;2023-03-14T00:39:02;160.27;;;154.53;;
13250;SDS011;6692;50.710;7.180;2023-03-14T00:41:04;152.27;;;146.73;;
13250;SDS011;6692;50.710;7.180;2023-03-14T00:43:04;154.57;;;148.87;;
13250;SDS011;6692;50.710;7.180;2023-03-14T00:45:05;159.57;;;153.60;;
13250;SDS011;6692;50.710;7.180;2023-03-14T00:47:07;159.13;;;153.37;;
13250;SDS011;6692;50.710;7.180;2023-03-14T00:49:09;153.37;;;147.63;;
13250;SDS011;6692;50.710;7.180;2023-03-14T00:51:10;159.43;;;153.67;;
13250;SDS011;6692;50.710;7.180;2023-03-14T00:53:11;148.33;;;143.10;;
13250;SDS011;6692;50.710;7.180;2023-03-14T00:55:12;153.77;;;147.87;;
13250;SDS011;6692;50.710;7.180;2023-03-14T00:57:14;157.10;;;151.37;;
13250;SDS011;6692;50.710;7.180;2023-03-14T00:59:15;145.50;;;140.17;;
13250;SDS011;6692;50.710;7.180;2023-03-14T01:01:17;152.63;;;147.00;;
13250;SDS011;6692;50.710;7.180;2023-03-14T01:03:16;132.87;;;127.70;;
13250;SDS011;6692;50.710;7.180;2023-03-14T01:05:17;151.70;;;146.27;;
13250;SDS011;6692;50.710;7.180;2023-03-14T01:07:18;129.27;;;124.33;;
13250;SDS011;6692;50.710;7.180;2023-03-14T01:09:19;151.03;;;145.57;;
13250;SDS011;6692;50.710;7.180;2023-03-14T01:11:23;141.30;;;136.20;;
13250;SDS011;6692;50.710;7.180;2023-03-14T01:13:22;140.07;;;134.90;;
13250;SDS011;6692;50.710;7.180;2023-03-14T01:15:22;144.53;;;139.03;;
13250;SDS011;6692;50.710;7.180;2023-03-14T01:17:23;139.63;;;134.30;;
13250;SDS011;6692;50.710;7.180;2023-03-14T01:19:25;110.37;;;106.33;;
13250;SDS011;6692;50.710;7.180;2023-03-14T01:21:28;142.43;;;137.27;;
13250;SDS011;6692;50.710;7.180;2023-03-14T01:23:27;108.67;;;104.60;;
13250;SDS011;6692;50.710;7.180;2023-03-14T01:25:28;128.10;;;123.30;;
13250;SDS011;6692;50.710;7.180;2023-03-14T01:27:28;139.00;;;133.80;;
13250;SDS011;6692;50.710;7.180;2023-03-14T01:29:29;147.37;;;142.17;;
13250;SDS011;6692;50.710;7.180;2023-03-14T01:31:30;141.13;;;135.87;;
13250;SDS011;6692;50.710;7.180;2023-03-14T01:33:30;143.83;;;138.37;;
13250;SDS011;6692;50.710;7.180;2023-03-14T01:35:32;147.90;;;142.50;;
13250;SDS011;6692;50.710;7.180;2023-03-14T01:37:33;135.57;;;130.23;;
13250;SDS011;6692;50.710;7.180;2023-03-14T01:39:33;170.83;;;164.77;;
13250;SDS011;6692;50.710;7.180;2023-03-14T01:41:35;166.13;;;160.13;;
13250;SDS011;6692;50.710;7.180;2023-03-14T01:43:35;135.20;;;130.33;;
13250;SDS011;6692;50.710;7.180;2023-03-14T01:47:49;127.33;;;122.53;;
13250;SDS011;6692;50.710;7.180;2023-03-14T01:49:51;133.33;;;128.33;;
13250;SDS011;6692;50.710;7.180;2023-03-14T01:52:10;111.17;;;107.07;;
13250;SDS011;6692;50.710;7.180;2023-03-14T01:54:12;132.27;;;127.47;;
13250;SDS011;6692;50.710;7.180;2023-03-14T01:56:11;137.97;;;132.67;;
13250;SDS011;6692;50.710;7.180;2023-03-14T01:58:11;117.13;;;112.70;;
13250;SDS011;6692;50.710;7.180;2023-03-14T02:00:13;130.37;;;125.07;;
13250;SDS011;6692;50.710;7.180;2023-03-14T02:02:14;149.50;;;144.03;;
13250;SDS011;6692;50.710;7.180;2023-03-14T02:04:14;151.63;;;145.93;;
13250;SDS011;6692;50.710;7.180;2023-03-14T02:06:15;159.83;;;154.13;;
13250;SDS011;6692;50.710;7.180;2023-03-14T02:08:18;154.93;;;149.27;;
13250;SDS011;6692;50.710;7.180;2023-03-14T02:10:18;153.57;;;147.93;;
13250;SDS011;6692;50.710;7.180;2023-03-14T02:12:19;160.43;;;154.77;;
13250;SDS011;6692;50.710;7.180;2023-03-14T02:14:25;171.00;;;164.87;;
13250;SDS011;6692;50.710;7.180;2023-03-14T02:16:23;160.30;;;154.53;;
13250;SDS011;6692;50.710;7.180;2023-03-14T02:18:23;160.50;;;154.60;;
13250;SDS011;6692;50.710;7.180;2023-03-14T02:20:46;162.63;;;156.70;;
13250;SDS011;6692;50.710;7.180;2023-03-14T02:22:45;139.13;;;133.73;;
13250;SDS011;6692;50.710;7.180;2023-03-14T02:24:48;155.87;;;150.07;;
13250;SDS011;6692;50.710;7.180;2023-03-14T02:28:59;163.17;;;157.33;;
13250;SDS011;6692;50.710;7.180;2023-03-14T02:31:01;159.00;;;153.13;;
13250;SDS011;6692;50.710;7.180;2023-03-14T02:33:04;145.13;;;139.63;;
13250;SDS011;6692;50.710;7.180;2023-03-14T02:35:08;145.87;;;140.33;;
13250;SDS011;6692;50.710;7.180;2023-03-14T02:37:08;156.37;;;150.70;;
13250;SDS011;6692;50.710;7.180;2023-03-14T02:39:14;145.43;;;140.13;;
13250;SDS011;6692;50.710;7.180;2023-03-14T02:41:12;132.23;;;127.27;;
13250;SDS011;6692;50.710;7.180;2023-03-14T02:43:14;141.80;;;136.63;;
13250;SDS011;6692;50.710;7.180;2023-03-14T02:47:31;131.43;;;126.40;;
13250;SDS011;6692;50.710;7.180;2023-03-14T02:49:32;142.47;;;137.10;;
13250;SDS011;6692;50.710;7.180;2023-03-14T02:51:33;136.93;;;131.57;;
13250;SDS011;6692;50.710;7.180;2023-03-14T02:53:35;120.63;;;116.07;;
13250;SDS011;6692;50.710;7.180;2023-03-14T02:55:35;137.80;;;132.63;;
13250;SDS011;6692;50.710;7.180;2023-03-14T02:57:35;134.83;;;129.53;;
13250;SDS011;6692;50.710;7.180;2023-03-14T02:59:36;143.57;;;138.10;;
13250;SDS011;6692;50.710;7.180;2023-03-14T03:01:37;137.73;;;132.60;;
13250;SDS011;6692;50.710;7.180;2023-03-14T03:03:37;142.40;;;137.20;;
13250;SDS011;6692;50.710;7.180;2023-03-14T03:05:38;140.87;;;135.47;;
13250;SDS011;6692;50.710;7.180;2023-03-14T03:07:39;137.53;;;132.37;;
13250;SDS011;6692;50.710;7.180;2023-03-14T03:09:40;124.87;;;119.87;;
13250;SDS011;6692;50.710;7.180;2023-03-14T03:11:41;122.73;;;117.83;;
13250;SDS011;6692;50.710;7.180;2023-03-14T03:13:42;130.30;;;125.43;;
13250;SDS011;6692;50.710;7.180;2023-03-14T03:15:42;111.87;;;107.57;;
13250;SDS011;6692;50.710;7.180;2023-03-14T03:17:43;115.27;;;110.97;;
13250;SDS011;6692;50.710;7.180;2023-03-14T03:19:44;124.40;;;119.40;;
13250;SDS011;6692;50.710;7.180;2023-03-14T03:21:45;144.67;;;139.10;;
13250;SDS011;6692;50.710;7.180;2023-03-14T03:23:45;100.57;;;96.40;;
13250;SDS011;6692;50.710;7.180;2023-03-14T03:25:47;117.70;;;113.30;;
13250;SDS011;6692;50.710;7.180;2023-03-14T03:27:48;96.67;;;92.83;;
13250;SDS011;6692;50.710;7.180;2023-03-14T03:29:48;118.10;;;113.57;;
13250;SDS011;6692;50.710;7.180;2023-03-14T03:31:49;149.90;;;144.10;;
13250;SDS011;6692;50.710;7.180;2023-03-14T03:33:50;163.87;;;157.83;;
13250;SDS011;6692;50.710;7.180;2023-03-14T03:35:51;183.23;;;176.77;;
13250;SDS011;6692;50.710;7.180;2023-03-14T03:37:51;139.77;;;134.10;;
13250;SDS011;6692;50.710;7.180;2023-03-14T03:39:52;133.60;;;128.37;;
13250;SDS011;6692;50.710;7.180;2023-03-14T03:41:53;152.33;;;146.70;;
13250;SDS011;6692;50.710;7.180;2023-03-14T03:43:53;151.37;;;145.67;;
13250;SDS011;6692;50.710;7.180;2023-03-14T03:45:54;148.93;;;143.33;;
13250;SDS011;6692;50.710;7.180;2023-03-14T03:47:55;151.37;;;145.93;;
13250;SDS011;6692;50.710;7.180;2023-03-14T03:49:56;132.83;;;127.83;;
13250;SDS011;6692;50.710;7.180;2023-03-14T03:51:57;160.03;;;154.13;;
13250;SDS011;6692;50.710;7.180;2023-03-14T03:53:58;158.60;;;152.70;;
13250;SDS011;6692;50.710;7.180;2023-03-14T03:55:59;156.97;;;151.27;;
13250;SDS011;6692;50.710;7.180;2023-03-14T03:58:00;153.33;;;147.70;;
13250;SDS011;6692;50.710;7.180;2023-03-14T04:00:00;147.50;;;142.03;;
13250;SDS011;6692;50.710;7.180;2023-03-14T04:02:01;158.83;;;153.00;;
13250;SDS011;6692;50.710;7.180;2023-03-14T04:04:02;149.17;;;143.87;;
13250;SDS011;6692;50.710;7.180;2023-03-14T04:06:04;136.60;;;131.43;;
13250;SDS011;6692;50.710;7.180;2023-03-14T04:08:05;117.57;;;112.97;;
13250;SDS011;6692;50.710;7.180;2023-03-14T04:10:06;124.17;;;119.47;;
13250;SDS011;6692;50.710;7.180;2023-03-14T04:12:08;94.27;;;90.43;;
13250;SDS011;6692;50.710;7.180;2023-03-14T04:14:09;106.60;;;102.37;;
13250;SDS011;6692;50.710;7.180;2023-03-14T04:16:11;108.10;;;103.87;;
13250;SDS011;6692;50.710;7.180;2023-03-14T04:18:10;104.43;;;100.57;;
13250;SDS011;6692;50.710;7.180;2023-03-14T04:20:11;118.00;;;113.40;;
13250;SDS011;6692;50.710;7.180;2023-03-14T04:22:12;89.27;;;85.90;;
13250;SDS011;6692;50.710;7.180;2023-03-14T04:24:13;108.67;;;104.63;;
13250;SDS011;6692;50.710;7.180;2023-03-14T04:26:14;112.97;;;108.87;;
13250;SDS011;6692;50.710;7.180;2023-03-14T04:28:16;93.63;;;90.20;;
13250;SDS011;6692;50.710;7.180;2023-03-14T04:30:16;100.73;;;96.90;;
13250;SDS011;6692;50.710;7.180;2023-03-14T04:32:17;104.47;;;100.57;;
13250;SDS011;6692;50.710;7.180;2023-03-14T04:34:18;86.03;;;82.73;;
13250;SDS011;6692;50.710;7.180;2023-03-14T04:36:18;85.90;;;82.63;;
13250;SDS011;6692;50.710;7.180;2023-03-14T04:38:19;94.77;;;91.17;;
13250;SDS011;6692;50.710;7.180;2023-03-14T04:40:20;104.43;;;100.70;;
13250;SDS011;6692;50.710;7.180;2023-03-14T04:42:20;95.23;;;91.70;;
13250;SDS011;6692;50.710;7.180;2023-03-14T04:44:21;60.53;;;58.13;;
13250;SDS011;6692;50.710;7.180;2023-03-14T04:46:22;62.77;;;60.23;;
13250;SDS011;6692;50.710;7.180;2023-03-14T04:48:23;84.17;;;81.10;;
13250;SDS011;6692;50.710;7.180;2023-03-14T04:50:23;80.80;;;77.90;;
13250;SDS011;6692;50.710;7.180;2023-03-14T04:52:24;93.73;;;90.30;;
13250;SDS011;6692;50.710;7.180;2023-03-14T04:54:25;101.73;;;97.77;;
13250;SDS011;6692;50.710;7.180;2023-03-14T04:56:25;106.13;;;102.43;;
13250;SDS011;6692;50.710;7.180;2023-03-14T04:58:26;77.20;;;74.40;;
13250;SDS011;6692;50.710;7.180;2023-03-14T05:00:27;98.10;;;94.60;;
13250;SDS011;6692;50.710;7.180;2023-03-14T05:02:28;100.30;;;96.73;;
13250;SDS011;6692;50.710;7.180;2023-03-14T05:04:29;76.43;;;73.57;;
13250;SDS011;6692;50.710;7.180;2023-03-14T05:06:30;102.30;;;98.63;;
13250;SDS011;6692;50.710;7.180;2023-03-14T05:08:31;105.23;;;101.53;;
13250;SDS011;6692;50.710;7.180;2023-03-14T05:10:31;96.27;;;92.87;;
13250;SDS011;6692;50.710;7.180;2023-03-14T05:12:33;93.47;;;90.07;;
13250;SDS011;6692;50.710;7.180;2023-03-14T05:14:34;66.93;;;64.50;;
13250;SDS011;6692;50.710;7.180;2023-03-14T05:16:34;80.30;;;77.43;;
13250;SDS011;6692;50.710;7.180;2023-03-14T05:18:35;80.60;;;77.63;;
13250;SDS011;6692;50.710;7.180;2023-03-14T05:20:36;65.27;;;62.87;;
13250;SDS011;6692;50.710;7.180;2023-03-14T05:22:36;81.03;;;78.13;;
13250;SDS011;6692;50.710;7.180;2023-03-14T05:24:37;85.50;;;82.50;;
13250;SDS011;6692;50.710;7.180;2023-03-14T05:26:38;85.07;;;82.03;;
13250;SDS011;6692;50.710;7.180;2023-03-14T05:28:38;69.10;;;66.53;;
13250;SDS011;6692;50.710;7.180;2023-03-14T05:30:39;79.97;;;77.07;;
13250;SDS011;6692;50.710;7.180;2023-03-14T05:32:40;68.77;;;66.20;;
13250;SDS011;6692;50.710;7.180;2023-03-14T05:34:41;81.53;;;78.60;;
13250;SDS011;6692;50.710;7.180;2023-03-14T05:36:41;94.00;;;90.70;;
13250;SDS011;6692;50.710;7.180;2023-03-14T05:38:42;86.97;;;83.90;;
13250;SDS011;6692;50.710;7.180;2023-03-14T05:40:44;89.97;;;86.73;;
13250;SDS011;6692;50.710;7.180;2023-03-14T05:42:44;89.07;;;85.97;;
13250;SDS011;6692;50.710;7.180;2023-03-14T05:44:45;93.10;;;89.80;;
13250;SDS011;6692;50.710;7.180;2023-03-14T05:46:46;83.73;;;80.77;;
13250;SDS011;6692;50.710;7.180;2023-03-14T05:48:47;93.40;;;90.10;;
13250;SDS011;6692;50.710;7.180;2023-03-14T05:50:48;90.10;;;86.93;;
13250;SDS011;6692;50.710;7.180;2023-03-14T05:52:49;72.80;;;70.17;;
13250;SDS011;6692;50.710;7.180;2023-03-14T05:54:50;72.97;;;70.27;;
13250;SDS011;6692;50.710;7.180;2023-03-14T05:56:51;82.30;;;79.40;;
13250;SDS011;6692;50.710;7.180;2023-03-14T05:58:51;87.13;;;84.00;;
13250;SDS011;6692;50.710;7.180;2023-03-14T06:00:52;89.83;;;86.67;;
13250;SDS011;6692;50.710;7.180;2023-03-14T06:02:53;83.33;;;80.33;;
13250;SDS011;6692;50.710;7.180;2023-03-14T06:04:54;98.13;;;94.73;;
13250;SDS011;6692;50.710;7.180;2023-03-14T06:06:55;93.07;;;89.70;;
13250;SDS011;6692;50.710;7.180;2023-03-14T06:08:55;99.87;;;96.37;;
13250;SDS011;6692;50.710;7.180;2023-03-14T06:10:56;105.30;;;101.63;;
13250;SDS011;6692;50.710;7.180;2023-03-14T06:12:58;99.47;;;95.97;;
13250;SDS011;6692;50.710;7.180;2023-03-14T06:14:58;100.57;;;97.03;;
13250;SDS011;6692;50.710;7.180;2023-03-14T06:16:59;103.00;;;99.33;;
13250;SDS011;6692;50.710;7.180;2023-03-14T06:19:00;90.40;;;87.13;;
13250;SDS011;6692;50.710;7.180;2023-03-14T06:21:00;96.23;;;92.83;;
13250;SDS011;6692;50.710;7.180;2023-03-14T06:23:01;99.50;;;96.00;;
13250;SDS011;6692;50.710;7.180;2023-03-14T06:25:02;101.80;;;97.93;;
13250;SDS011;6692;50.710;7.180;2023-03-14T06:27:03;102.60;;;99.00;;
13250;SDS011;6692;50.710;7.180;2023-03-14T06:29:04;107.20;;;103.43;;
13250;SDS011;6692;50.710;7.180;2023-03-14T06:31:05;105.83;;;102.17;;
13250;SDS011;6692;50.710;7.180;2023-03-14T06:33:06;112.93;;;108.97;;
13250;SDS011;6692;50.710;7.180;2023-03-14T06:35:07;96.57;;;93.17;;
13250;SDS011;6692;50.710;7.180;2023-03-14T06:37:08;106.87;;;103.13;;
13250;SDS011;6692;50.710;7.180;2023-03-14T06:39:09;108.03;;;104.30;;
13250;SDS011;6692;50.710;7.180;2023-03-14T06:41:09;109.07;;;105.17;;
13250;SDS011;6692;50.710;7.180;2023-03-14T06:43:10;104.20;;;100.60;;
13250;SDS011;6692;50.710;7.180;2023-03-14T06:45:11;110.67;;;106.83;;
13250;SDS011;6692;50.710;7.180;2023-03-14T06:47:11;113.23;;;109.20;;
13250;SDS011;6692;50.710;7.180;2023-03-14T06:49:12;109.13;;;105.33;;
13250;SDS011;6692;50.710;7.180;2023-03-14T06:51:13;97.20;;;93.80;;
13250;SDS011;6692;50.710;7.180;2023-03-14T06:53:13;89.13;;;85.93;;
13250;SDS011;6692;50.710;7.180;2023-03-14T06:55:15;106.43;;;102.63;;
13250;SDS011;6692;50.710;7.180;2023-03-14T06:57:15;112.30;;;108.37;;
13250;SDS011;6692;50.710;7.180;2023-03-14T06:59:16;106.10;;;102.40;;
13250;SDS011;6692;50.710;7.180;2023-03-14T07:01:20;111.87;;;107.90;;
13250;SDS011;6692;50.710;7.180;2023-03-14T07:03:20;107.97;;;104.17;;
13250;SDS011;6692;50.710;7.180;2023-03-14T07:05:21;110.60;;;106.60;;
13250;SDS011;6692;50.710;7.180;2023-03-14T07:07:21;95.63;;;92.27;;
13250;SDS011;6692;50.710;7.180;2023-03-14T07:09:22;95.00;;;91.67;;
13250;SDS011;6692;50.710;7.180;2023-03-14T07:11:23;93.53;;;90.27;;
13250;SDS011;6692;50.710;7.180;2023-03-14T07:13:23;83.70;;;80.77;;
13250;SDS011;6692;50.710;7.180;2023-03-14T07:15:24;103.23;;;99.63;;
13250;SDS011;6692;50.710;7.180;2023-03-14T07:17:26;114.13;;;110.13;;
13250;SDS011;6692;50.710;7.180;2023-03-14T07:19:26;91.40;;;88.20;;
13250;SDS011;6692;50.710;7.180;2023-03-14T07:21:27;102.17;;;98.63;;
13250;SDS011;6692;50.710;7.180;2023-03-14T07:23:28;101.77;;;98.27;;
13250;SDS011;6692;50.710;7.180;2023-03-14T07:25:28;103.73;;;100.03;;
13250;SDS011;6692;50.710;7.180;2023-03-14T07:27:29;106.97;;;103.17;;
13250;SDS011;6692;50.710;7.180;2023-03-14T07:29:30;109.17;;;105.33;;
13250;SDS011;6692;50.710;7.180;2023-03-14T07:31:31;96.80;;;93.37;;
13250;SDS011;6692;50.710;7.180;2023-03-14T07:33:31;98.27;;;94.77;;
13250;SDS011;6692;50.710;7.180;2023-03-14T07:35:32;91.07;;;87.90;;
13250;SDS011;6692;50.710;7.180;2023-03-14T07:37:33;88.87;;;85.70;;
13250;SDS011;6692;50.710;7.180;2023-03-14T07:39:33;94.03;;;90.73;;
13250;SDS011;6692;50.710;7.180;2023-03-14T07:41:35;82.93;;;80.00;;
13250;SDS011;6692;50.710;7.180;2023-03-14T07:43:36;99.10;;;95.63;;
13250;SDS011;6692;50.710;7.180;2023-03-14T07:45:36;100.80;;;97.30;;
13250;SDS011;6692;50.710;7.180;2023-03-14T07:47:37;97.93;;;94.47;;
13250;SDS011;6692;50.710;7.180;2023-03-14T07:49:38;91.70;;;88.43;;
13250;SDS011;6692;50.710;7.180;2023-03-14T07:51:38;103.90;;;100.30;;
13250;SDS011;6692;50.710;7.180;2023-03-14T07:53:39;87.43;;;84.40;;
13250;SDS011;6692;50.710;7.180;2023-03-14T07:55:40;106.10;;;102.37;;
13250;SDS011;6692;50.710;7.180;2023-03-14T07:57:40;103.00;;;99.40;;
13250;SDS011;6692;50.710;7.180;2023-03-14T07:59:42;117.47;;;113.37;;
13250;SDS011;6692;50.710;7.180;2023-03-14T08:01:43;117.50;;;113.37;;
13250;SDS011;6692;50.710;7.180;2023-03-14T08:03:43;121.70;;;117.47;;
13250;SDS011;6692;50.710;7.180;2023-03-14T08:05:46;111.07;;;107.07;;
13250;SDS011;6692;50.710;7.180;2023-03-14T08:07:45;124.17;;;119.90;;
13250;SDS011;6692;50.710;7.180;2023-03-14T08:09:46;102.40;;;98.87;;
13250;SDS011;6692;50.710;7.180;2023-03-14T08:11:46;109.57;;;105.77;;
13250;SDS011;6692;50.710;7.180;2023-03-14T08:13:47;92.03;;;88.80;;
13250;SDS011;6692;50.710;7.180;2023-03-14T08:15:48;119.47;;;115.30;;
13250;SDS011;6692;50.710;7.180;2023-03-14T08:17:49;141.63;;;136.67;;
13250;SDS011;6692;50.710;7.180;2023-03-14T08:19:49;127.97;;;123.53;;
13250;SDS011;6692;50.710;7.180;2023-03-14T08:21:50;139.67;;;134.87;;
13250;SDS011;6692;50.710;7.180;2023-03-14T08:23:50;127.53;;;123.13;;
13250;SDS011;6692;50.710;7.180;2023-03-14T08:25:51;136.80;;;132.10;;
13250;SDS011;6692;50.710;7.180;2023-03-14T08:27:52;118.67;;;114.57;;
13250;SDS011;6692;50.710;7.180;2023-03-14T08:29:53;114.63;;;110.70;;
13250;SDS011;6692;50.710;7.180;2023-03-14T08:31:53;134.00;;;129.37;;
13250;SDS011;6692;50.710;7.180;2023-03-14T08:33:54;110.47;;;106.67;;
13250;SDS011;6692;50.710;7.180;2023-03-14T08:35:55;128.53;;;124.07;;
13250;SDS011;6692;50.710;7.180;2023-03-14T08:37:55;128.27;;;123.87;;
13250;SDS011;6692;50.710;7.180;2023-03-14T08:39:56;125.17;;;120.87;;
13250;SDS011;6692;50.710;7.180;2023-03-14T08:41:57;99.37;;;95.97;;
13250;SDS011;6692;50.710;7.180;2023-03-14T08:43:57;84.43;;;81.43;;
13250;SDS011;6692;50.710;7.180;2023-03-14T08:45:59;104.33;;;100.73;;
13250;SDS011;6692;50.710;7.180;2023-03-14T08:47:59;91.73;;;88.53;;
13250;SDS011;6692;50.710;7.180;2023-03-14T08:49:59;66.80;;;64.40;;
13250;SDS011;6692;50.710;7.180;2023-03-14T08:52:02;79.67;;;76.87;;
13250;SDS011;6692;50.710;7.180;2023-03-14T08:54:02;87.47;;;84.43;;
13250;SDS011;6692;50.710;7.180;2023-03-14T08:56:03;106.07;;;102.43;;
13250;SDS011;6692;50.710;7.180;2023-03-14T08:58:04;138.27;;;133.50;;
13250;SDS011;6692;50.710;7.180;2023-03-14T09:00:05;115.67;;;111.70;;
13250;SDS011;6692;50.710;7.180;2023-03-14T09:02:10;99.70;;;96.23;;
13250;SDS011;6692;50.710;7.180;2023-03-14T09:04:10;133.67;;;129.07;;
13250;SDS011;6692;50.710;7.180;2023-03-14T09:06:11;119.90;;;115.80;;
13250;SDS011;6692;50.710;7.180;2023-03-14T09:08:12;129.63;;;125.13;;
13250;SDS011;6692;50.710;7.180;2023-03-14T09:10:14;109.43;;;105.63;;
13250;SDS011;6692;50.710;7.180;2023-03-14T09:12:15;128.90;;;124.50;;
13250;SDS011;6692;50.710;7.180;2023-03-14T09:14:15;163.10;;;157.57;;
13250;SDS011;6692;50.710;7.180;2023-03-14T09:16:16;164.43;;;158.80;;
13250;SDS011;6692;50.710;7.180;2023-03-14T09:18:17;178.83;;;172.80;;
13250;SDS011;6692;50.710;7.180;2023-03-14T09:20:18;179.37;;;173.33;;
13250;SDS011;6692;50.710;7.180;2023-03-14T09:22:20;181.80;;;175.70;;
13250;SDS011;6692;50.710;7.180;2023-03-14T09:24:20;184.47;;;178.20;;
13250;SDS011;6692;50.710;7.180;2023-03-14T09:26:21;198.37;;;191.60;;
13250;SDS011;6692;50.710;7.180;2023-03-14T09:28:22;187.23;;;180.93;;
13250;SDS011;6692;50.710;7.180;2023-03-14T09:30:23;180.97;;;174.83;;
13250;SDS011;6692;50.710;7.180;2023-03-14T09:32:23;203.80;;;196.63;;
13250;SDS011;6692;50.710;7.180;2023-03-14T09:34:24;198.57;;;191.90;;
13250;SDS011;6692;50.710;7.180;2023-03-14T09:36:25;214.97;;;207.60;;
13250;SDS011;6692;50.710;7.180;2023-03-14T09:38:26;211.07;;;203.90;;
13250;SDS011;6692;50.710;7.180;2023-03-14T09:40:27;208.40;;;201.37;;
13250;SDS011;6692;50.710;7.180;2023-03-14T09:42:28;215.87;;;208.60;;
13250;SDS011;6692;50.710;7.180;2023-03-14T09:44:30;192.63;;;186.00;;
13250;SDS011;6692;50.710;7.180;2023-03-14T09:46:29;216.10;;;208.70;;
13250;SDS011;6692;50.710;7.180;2023-03-14T09:48:32;200.87;;;194.00;;
13250;SDS011;6692;50.710;7.180;2023-03-14T09:50:36;207.67;;;200.57;;
13250;SDS011;6692;50.710;7.180;2023-03-14T09:52:38;198.73;;;192.03;;
13250;SDS011;6692;50.710;7.180;2023-03-14T09:54:39;203.07;;;196.20;;
13250;SDS011;6692;50.710;7.180;2023-03-14T09:56:39;185.87;;;179.43;;
13250;SDS011;6692;50.710;7.180;2023-03-14T09:58:40;184.73;;;178.40;;
13250;SDS011;6692;50.710;7.180;2023-03-14T10:00:40;173.53;;;167.53;;
13250;SDS011;6692;50.710;7.180;2023-03-14T10:02:42;192.00;;;185.00;;
13250;SDS011;6692;50.710;7.180;2023-03-14T10:04:42;178.20;;;172.10;;
13250;SDS011;6692;50.710;7.180;2023-03-14T10:06:42;153.00;;;147.67;;
13250;SDS011;6692;50.710;7.180;2023-03-14T10:08:44;126.53;;;122.03;;
13250;SDS011;6692;50.710;7.180;2023-03-14T10:10:44;98.33;;;94.90;;
13250;SDS011;6692;50.710;7.180;2023-03-14T10:12:46;76.23;;;73.37;;
13250;SDS011;6692;50.710;7.180;2023-03-14T10:14:49;86.17;;;83.17;;
13250;SDS011;6692;50.710;7.180;2023-03-14T10:16:49;84.33;;;81.37;;
13250;SDS011;6692;50.710;7.180;2023-03-14T10:18:49;74.60;;;71.87;;
13250;SDS011;6692;50.710;7.180;2023-03-14T10:21:01;72.67;;;69.97;;
13250;SDS011;6692;50.710;7.180;2023-03-14T10:22:51;85.33;;;82.30;;
13250;SDS011;6692;50.710;7.180;2023-03-14T10:24:53;75.13;;;72.43;;
13250;SDS011;6692;50.710;7.180;2023-03-14T10:26:54;66.90;;;64.50;;
13250;SDS011;6692;50.710;7.180;2023-03-14T10:29:01;71.20;;;68.40;;
13250;SDS011;6692;50.710;7.180;2023-03-14T10:31:10;53.10;;;51.00;;
13250;SDS011;6692;50.710;7.180;2023-03-14T10:33:19;61.07;;;58.87;;
13250;SDS011;6692;50.710;7.180;2023-03-14T10:35:22;63.97;;;61.67;;
13250;SDS011;6692;50.710;7.180;2023-03-14T10:37:24;70.47;;;67.87;;
13250;SDS011;6692;50.710;7.180;2023-03-14T10:39:27;64.40;;;62.10;;
13250;SDS011;6692;50.710;7.180;2023-03-14T10:41:27;61.53;;;59.33;;
13250;SDS011;6692;50.710;7.180;2023-03-14T10:43:31;66.23;;;63.83;;
13250;SDS011;6692;50.710;7.180;2023-03-14T10:45:32;51.60;;;49.70;;
13250;SDS011;6692;50.710;7.180;2023-03-14T10:47:34;47.53;;;45.83;;
13250;SDS011;6692;50.710;7.180;2023-03-14T10:49:36;44.97;;;43.23;;
13250;SDS011;6692;50.710;7.180;2023-03-14T10:51:36;48.83;;;47.03;;
13250;SDS011;6692;50.710;7.180;2023-03-14T10:53:55;43.43;;;41.80;;
13250;SDS011;6692;50.710;7.180;2023-03-14T10:55:57;35.40;;;34.10;;
13250;SDS011;6692;50.710;7.180;2023-03-14T10:57:58;42.43;;;40.90;;
13250;SDS011;6692;50.710;7.180;2023-03-14T10:59:58;38.23;;;36.77;;
13250;SDS011;6692;50.710;7.180;2023-03-14T11:02:03;39.97;;;38.37;;
13250;SDS011;6692;50.710;7.180;2023-03-14T11:04:15;42.67;;;41.03;;
13250;SDS011;6692;50.710;7.180;2023-03-14T11:06:23;40.47;;;39.00;;
13250;SDS011;6692;50.710;7.180;2023-03-14T11:08:25;53.03;;;51.07;;
13250;SDS011;6692;50.710;7.180;2023-03-14T11:10:26;43.53;;;41.80;;
13250;SDS011;6692;50.710;7.180;2023-03-14T11:14:41;46.83;;;45.10;;
13250;SDS011;6692;50.710;7.180;2023-03-14T11:16:46;51.57;;;49.67;;
13250;SDS011;6692;50.710;7.180;2023-03-14T11:19:54;44.63;;;43.00;;
13250;SDS011;6692;50.710;7.180;2023-03-14T11:21:29;44.03;;;42.33;;
13250;SDS011;6692;50.710;7.180;2023-03-14T11:27:16;40.20;;;38.53;;
13250;SDS011;6692;50.710;7.180;2023-03-14T11:28:36;38.93;;;37.43;;
13250;SDS011;6692;50.710;7.180;2023-03-14T11:30:40;41.83;;;40.27;;
13250;SDS011;6692;50.710;7.180;2023-03-14T11:32:42;42.43;;;40.87;;
13250;SDS011;6692;50.710;7.180;2023-03-14T11:34:50;44.57;;;42.90;;
13250;SDS011;6692;50.710;7.180;2023-03-14T11:36:51;40.20;;;38.67;;
13250;SDS011;6692;50.710;7.180;2023-03-14T11:38:52;46.93;;;45.10;;
13250;SDS011;6692;50.710;7.180;2023-03-14T11:40:53;40.47;;;38.83;;
13250;SDS011;6692;50.710;7.180;2023-03-14T11:42:55;40.50;;;38.93;;
13250;SDS011;6692;50.710;7.180;2023-03-14T11:44:55;47.37;;;45.57;;
13250;SDS011;6692;50.710;7.180;2023-03-14T11:51:32;67.10;;;64.63;;
13250;SDS011;6692;50.710;7.180;2023-03-14T11:53:40;55.33;;;53.13;;
13250;SDS011;6692;50.710;7.180;2023-03-14T11:55:40;50.17;;;48.20;;
13250;SDS011;6692;50.710;7.180;2023-03-14T11:57:40;54.50;;;52.43;;
13250;SDS011;6692;50.710;7.180;2023-03-14T11:59:45;51.13;;;49.17;;
13250;SDS011;6692;50.710;7.180;2023-03-14T12:01:49;46.33;;;44.43;;
13250;SDS011;6692;50.710;7.180;2023-03-14T12:03:54;50.30;;;48.40;;